Time;durP1;ratioP1;P1;durP2;ratioP2;P2;SDS_P1;SDS_P2;PMS_P1;PMS_P2;Temp;Humidity;BMP_temperature;BMP_pressure;BME280_temperature;BME280_humidity;BME280_pressure;Samples;Min_cycle;Max_cycle;Signal;HPM_P1;HPM_P2
2022/10/31 00:02:27;;;;;;;11.77;7.57;;;12.50;99.90;;;;;;10410529;28;20221;-75
2022/10/31 00:07:27;;;;;;;11.77;8.53;;;12.40;99.90;;;;;;10396090;28;20283;-78
2022/10/31 00:12:28;;;;;;;17.63;8.90;;;12.40;99.90;;;;;;10397360;28;20224;-77
2022/10/31 00:17:37;;;;;;;13.47;8.33;;;12.40;99.90;;;;;;10394949;28;20392;-77
2022/10/31 00:22:37;;;;;;;13.17;8.57;;;12.40;99.90;;;;;;10398675;28;20303;-77
2022/10/31 00:27:38;;;;;;;13.97;9.17;;;12.40;99.90;;;;;;10392103;28;20301;-74
2022/10/31 00:32:38;;;;;;;9.60;7.63;;;12.30;99.90;;;;;;10404184;28;20267;-76
2022/10/31 00:37:39;;;;;;;16.23;8.20;;;12.30;99.90;;;;;;10394827;28;20213;-75
2022/10/31 00:42:43;;;;;;;13.73;8.67;;;12.40;99.90;;;;;;10405283;28;20960;-75
2022/10/31 00:47:43;;;;;;;16.93;9.60;;;12.30;99.90;;;;;;10400074;28;20224;-75
2022/10/31 00:52:44;;;;;;;15.30;8.53;;;12.40;99.90;;;;;;10402047;28;20227;-75
2022/10/31 00:57:47;;;;;;;11.40;8.17;;;12.30;99.90;;;;;;10393280;28;20225;-75
2022/10/31 01:02:48;;;;;;;11.60;7.67;;;12.30;99.90;;;;;;10400112;28;20228;-78
2022/10/31 01:07:48;;;;;;;14.37;8.73;;;12.20;99.90;;;;;;10393684;28;20218;-79
2022/10/31 01:12:49;;;;;;;14.00;8.07;;;12.10;99.90;;;;;;10402927;28;20224;-78
2022/10/31 01:17:50;;;;;;;12.43;8.27;;;12.10;99.90;;;;;;10381721;28;20225;-78
2022/10/31 01:22:50;;;;;;;14.97;8.23;;;12.00;99.90;;;;;;10394286;28;20318;-78
2022/10/31 01:27:51;;;;;;;11.87;8.07;;;12.00;99.90;;;;;;10389510;28;20216;-75
2022/10/31 01:32:54;;;;;;;12.50;7.77;;;11.90;99.90;;;;;;10406579;28;20216;-76
2022/10/31 01:37:58;;;;;;;10.80;8.10;;;11.90;99.90;;;;;;10391946;28;20687;-76
2022/10/31 01:42:58;;;;;;;12.30;8.40;;;11.90;99.90;;;;;;10407006;28;20399;-74
2022/10/31 01:47:59;;;;;;;14.43;9.17;;;11.90;99.90;;;;;;10390363;28;20237;-74
2022/10/31 01:53:01;;;;;;;14.40;8.33;;;11.90;99.90;;;;;;10394663;28;20232;-74
2022/10/31 01:58:09;;;;;;;15.87;8.50;;;11.90;99.90;;;;;;10396737;28;20692;-78
2022/10/31 02:03:10;;;;;;;12.87;9.00;;;11.90;99.90;;;;;;10395431;28;20243;-78
2022/10/31 02:08:33;;;;;;;12.10;8.63;;;11.90;99.90;;;;;;10391689;28;20236;-78
2022/10/31 02:13:34;;;;;;;17.43;9.43;;;12.00;99.90;;;;;;10428477;28;20252;-74
2022/10/31 02:18:35;;;;;;;12.63;8.93;;;12.10;99.90;;;;;;10415364;28;20244;-75
2022/10/31 02:23:54;;;;;;;14.47;8.97;;;12.10;99.90;;;;;;10412276;28;20235;-78
2022/10/31 02:28:58;;;;;;;12.33;7.83;;;12.10;99.90;;;;;;10424570;28;20276;-77
2022/10/31 02:34:16;;;;;;;10.93;7.80;;;12.10;99.90;;;;;;10437396;28;20219;-77
2022/10/31 02:39:32;;;;;;;10.07;7.27;;;12.10;99.90;;;;;;10427709;28;20232;-75
2022/10/31 02:44:48;;;;;;;10.93;6.80;;;12.10;99.90;;;;;;10386892;28;20233;-76
2022/10/31 02:50:27;;;;;;;11.60;7.63;;;12.10;99.90;;;;;;10390613;28;20576;-75
2022/10/31 02:55:28;;;;;;;12.20;8.27;;;12.00;99.90;;;;;;10422542;28;20216;-75
2022/10/31 03:00:35;;;;;;;11.67;7.30;;;12.00;99.90;;;;;;10433093;28;20220;-75
2022/10/31 03:05:49;;;;;;;14.03;7.90;;;11.90;99.90;;;;;;10384261;28;20600;-74
2022/10/31 03:10:59;;;;;;;10.50;7.33;;;11.80;99.90;;;;;;10408517;28;20220;-75
2022/10/31 03:16:21;;;;;;;11.17;7.17;;;11.80;99.90;;;;;;10398402;28;20241;-76
2022/10/31 03:21:33;;;;;;;14.93;7.37;;;11.80;99.90;;;;;;10400660;28;20369;-75
2022/10/31 03:26:36;;;;;;;11.50;7.50;;;11.80;99.90;;;;;;10394846;28;20727;-76
2022/10/31 03:31:46;;;;;;;10.23;7.20;;;11.80;99.90;;;;;;10400951;28;20888;-75
2022/10/31 03:36:51;;;;;;;8.60;6.87;;;11.90;99.90;;;;;;10409637;28;20228;-78
2022/10/31 03:42:05;;;;;;;10.47;7.07;;;11.80;99.90;;;;;;10421864;28;20228;-79
2022/10/31 03:47:06;;;;;;;11.20;7.20;;;11.80;99.90;;;;;;10399454;28;20268;-79
2022/10/31 03:52:15;;;;;;;11.67;6.60;;;11.80;99.90;;;;;;10407664;28;20354;-80
2022/10/31 03:57:29;;;;;;;10.57;7.23;;;11.80;99.90;;;;;;10401025;28;20221;-78
2022/10/31 04:02:36;;;;;;;12.93;7.60;;;11.80;99.90;;;;;;10396260;28;20584;-78
2022/10/31 04:07:45;;;;;;;12.00;7.50;;;11.80;99.90;;;;;;10397996;28;20451;-78
2022/10/31 04:12:50;;;;;;;14.93;7.27;;;11.80;99.90;;;;;;10397654;28;20225;-78
2022/10/31 04:17:55;;;;;;;14.33;7.43;;;11.80;99.90;;;;;;10395590;28;20238;-77
2022/10/31 04:22:56;;;;;;;14.43;7.20;;;11.90;99.90;;;;;;10404310;28;20287;-77
2022/10/31 04:27:56;;;;;;;11.30;7.37;;;11.80;99.90;;;;;;10402459;28;20270;-77
2022/10/31 04:32:57;;;;;;;12.33;8.13;;;11.80;99.90;;;;;;10395351;28;20226;-78
2022/10/31 04:37:57;;;;;;;13.27;7.77;;;11.70;99.90;;;;;;10388001;28;20243;-77
2022/10/31 04:42:58;;;;;;;12.83;6.80;;;11.70;99.90;;;;;;10394536;28;20597;-74
2022/10/31 04:47:58;;;;;;;10.50;7.00;;;11.60;99.90;;;;;;10418663;28;20213;-74
2022/10/31 04:52:59;;;;;;;12.47;7.17;;;11.60;99.90;;;;;;10440069;28;20215;-70
2022/10/31 04:57:59;;;;;;;11.53;7.37;;;11.60;99.90;;;;;;10441994;28;20734;-69
2022/10/31 05:03:00;;;;;;;9.10;6.27;;;11.60;99.90;;;;;;10445534;28;21032;-69
2022/10/31 05:08:01;;;;;;;9.77;6.80;;;11.60;99.90;;;;;;10443001;28;20215;-70
2022/10/31 05:13:03;;;;;;;14.63;6.70;;;11.60;99.90;;;;;;10443755;28;20228;-69
2022/10/31 05:18:04;;;;;;;9.17;6.10;;;11.60;99.90;;;;;;10440341;28;20220;-71
2022/10/31 05:23:05;;;;;;;10.87;6.93;;;11.50;99.90;;;;;;10446494;28;20224;-73
2022/10/31 05:28:06;;;;;;;12.63;7.07;;;11.40;99.90;;;;;;10446502;28;20228;-68
2022/10/31 05:33:07;;;;;;;11.50;6.97;;;11.30;99.90;;;;;;10461688;28;20226;-69
2022/10/31 05:38:08;;;;;;;9.77;6.83;;;11.20;99.90;;;;;;10447198;28;20815;-70
2022/10/31 05:43:08;;;;;;;12.60;7.17;;;11.30;99.90;;;;;;10437835;28;20274;-71
2022/10/31 05:48:09;;;;;;;10.17;7.60;;;11.20;99.90;;;;;;10432771;28;20235;-73
2022/10/31 05:53:09;;;;;;;18.70;8.97;;;11.20;99.90;;;;;;10412218;28;20592;-71
2022/10/31 05:58:11;;;;;;;13.40;7.57;;;11.20;99.90;;;;;;10397164;28;20225;-71
2022/10/31 06:03:11;;;;;;;17.57;8.00;;;11.20;99.90;;;;;;10398128;28;20232;-70
2022/10/31 06:08:12;;;;;;;17.93;12.57;;;11.30;99.90;;;;;;10425253;28;20227;-70
2022/10/31 06:13:13;;;;;;;17.93;10.40;;;11.30;99.90;;;;;;10420078;28;20738;-71
2022/10/31 06:18:13;;;;;;;13.23;8.90;;;11.30;99.90;;;;;;10383524;28;20899;-70
2022/10/31 06:23:14;;;;;;;15.43;9.23;;;11.30;99.90;;;;;;10383809;28;20409;-70
2022/10/31 06:28:14;;;;;;;14.90;9.80;;;11.30;99.90;;;;;;10392720;28;20763;-71
2022/10/31 06:33:15;;;;;;;13.60;8.97;;;11.30;99.90;;;;;;10386986;28;20229;-71
2022/10/31 06:38:15;;;;;;;15.17;8.20;;;11.40;99.90;;;;;;10383695;28;20274;-71
2022/10/31 06:43:16;;;;;;;15.50;8.47;;;11.50;99.90;;;;;;10383855;28;20874;-71
2022/10/31 06:48:16;;;;;;;12.90;8.20;;;11.80;99.90;;;;;;10392862;28;20262;-71
2022/10/31 06:53:17;;;;;;;13.13;7.13;;;12.20;99.90;;;;;;10392597;28;20220;-71
2022/10/31 06:58:18;;;;;;;15.10;7.23;;;12.70;99.90;;;;;;10392020;28;20216;-71
2022/10/31 07:03:20;;;;;;;15.13;7.20;;;13.10;99.90;;;;;;10392790;28;20236;-71
2022/10/31 07:08:20;;;;;;;12.73;7.57;;;13.60;99.90;;;;;;10393039;28;20307;-70
2022/10/31 07:13:27;;;;;;;14.23;6.77;;;14.70;99.90;;;;;;10392717;28;20351;-71
2022/10/31 07:18:28;;;;;;;10.57;6.40;;;15.80;99.90;;;;;;10398826;28;20246;-71
2022/10/31 07:23:28;;;;;;;10.10;6.03;;;16.70;99.90;;;;;;10390559;28;20312;-71
2022/10/31 07:28:29;;;;;;;14.43;6.23;;;16.30;99.90;;;;;;10387560;28;20218;-70
2022/10/31 07:33:29;;;;;;;13.10;5.87;;;15.70;99.90;;;;;;10392861;28;20311;-71
2022/10/31 07:38:30;;;;;;;9.90;5.80;;;15.30;99.90;;;;;;10394448;28;20593;-70
2022/10/31 07:43:30;;;;;;;17.93;6.57;;;15.30;99.90;;;;;;10391324;28;20232;-71
2022/10/31 07:48:31;;;;;;;16.93;6.47;;;15.20;99.90;;;;;;10403269;28;20209;-69
2022/10/31 07:53:31;;;;;;;13.00;6.30;;;14.80;99.90;;;;;;10389666;28;20221;-70
2022/10/31 07:58:32;;;;;;;15.57;5.87;;;15.00;99.90;;;;;;10390115;28;20223;-69
2022/10/31 08:03:32;;;;;;;15.13;5.93;;;15.10;99.90;;;;;;10394285;28;20316;-71
2022/10/31 08:08:33;;;;;;;13.20;5.77;;;14.90;99.90;;;;;;10400973;28;20213;-71
2022/10/31 08:13:34;;;;;;;14.13;5.40;;;14.80;99.90;;;;;;10391169;28;20218;-72
2022/10/31 08:18:37;;;;;;;8.97;5.77;;;15.20;99.90;;;;;;10387381;28;20238;-70
2022/10/31 08:23:37;;;;;;;13.30;5.73;;;15.40;99.90;;;;;;10391769;28;20221;-71
2022/10/31 08:28:38;;;;;;;11.50;5.00;;;15.80;99.90;;;;;;10387670;28;20586;-70
2022/10/31 08:33:39;;;;;;;13.73;5.50;;;16.60;99.90;;;;;;10393173;28;20244;-71
2022/10/31 08:38:39;;;;;;;14.23;4.90;;;17.20;99.90;;;;;;10394541;28;20222;-71
2022/10/31 08:43:40;;;;;;;9.77;4.97;;;16.90;99.90;;;;;;10391655;28;20218;-71
2022/10/31 08:48:40;;;;;;;11.27;5.60;;;16.90;99.90;;;;;;10385563;28;20223;-71
2022/10/31 08:53:41;;;;;;;12.57;5.27;;;16.70;99.90;;;;;;10382680;28;20306;-70
2022/10/31 08:58:42;;;;;;;10.53;4.87;;;16.50;99.90;;;;;;10391796;28;20224;-70
2022/10/31 09:03:42;;;;;;;11.60;4.60;;;16.30;99.90;;;;;;10384985;28;20312;-72
2022/10/31 09:08:43;;;;;;;7.50;4.90;;;16.10;99.90;;;;;;10390721;28;20263;-71
2022/10/31 09:13:43;;;;;;;15.50;5.90;;;16.10;99.90;;;;;;10385027;28;20750;-72
2022/10/31 09:18:44;;;;;;;12.93;5.87;;;16.40;99.90;;;;;;10391436;28;20220;-72
2022/10/31 09:23:44;;;;;;;11.50;5.13;;;16.40;99.90;;;;;;10421951;28;20280;-70
2022/10/31 09:28:46;;;;;;;10.93;4.97;;;16.40;99.90;;;;;;10424288;28;20214;-70
2022/10/31 09:33:46;;;;;;;9.60;5.17;;;16.50;99.90;;;;;;10393082;28;20222;-70
2022/10/31 09:38:47;;;;;;;8.70;4.80;;;16.80;99.90;;;;;;10396740;28;20280;-71
2022/10/31 09:44:07;;;;;;;12.30;5.20;;;17.40;99.90;;;;;;10383546;28;20228;-71
2022/10/31 09:49:48;;;;;;;12.57;5.07;;;18.10;99.90;;;;;;10401680;28;20202;-71
2022/10/31 09:55:14;;;;;;;15.60;5.57;;;18.50;99.90;;;;;;10397305;28;20760;-72
2022/10/31 10:00:19;;;;;;;10.47;4.90;;;18.70;99.90;;;;;;10386355;28;20761;-71
2022/10/31 10:05:27;;;;;;;17.07;5.27;;;18.60;99.90;;;;;;10388210;28;20670;-71
2022/10/31 10:11:22;;;;;;;11.03;5.33;;;18.50;99.90;;;;;;10434263;28;20243;-71
2022/10/31 10:16:44;;;;;;;10.53;4.90;;;18.60;99.90;;;;;;10389411;28;20220;-72
2022/10/31 10:21:52;;;;;;;11.63;5.80;;;18.70;99.90;;;;;;10381869;28;20232;-71
2022/10/31 10:27:05;;;;;;;8.80;5.10;;;18.60;99.90;;;;;;10382053;28;20302;-72
2022/10/31 10:32:31;;;;;;;12.07;5.20;;;18.80;99.90;;;;;;10389609;28;20226;-71
2022/10/31 10:37:38;;;;;;;16.03;5.17;;;19.10;99.90;;;;;;10384516;28;20227;-71
2022/10/31 10:48:09;;;;;;;13.23;5.10;;;19.60;99.90;;;;;;10382301;28;20303;-71
2022/10/31 10:53:38;;;;;;;13.00;5.07;;;20.00;99.90;;;;;;10385773;28;20250;-73
2022/10/31 10:58:42;;;;;;;12.83;5.17;;;20.60;99.90;;;;;;10387052;28;20227;-73
2022/10/31 11:03:42;;;;;;;10.30;5.50;;;20.80;99.90;;;;;;10382834;28;20225;-70
2022/10/31 11:08:43;;;;;;;9.13;4.50;;;21.20;99.90;;;;;;10387294;28;20224;-72
2022/10/31 11:13:47;;;;;;;12.93;4.97;;;21.20;99.90;;;;;;10381341;28;20217;-71
2022/10/31 11:18:47;;;;;;;8.13;4.37;;;21.30;99.90;;;;;;10425811;28;20219;-71
2022/10/31 11:23:48;;;;;;;9.93;4.20;;;21.40;99.90;;;;;;10420342;28;20229;-71
2022/10/31 11:28:59;;;;;;;13.13;4.67;;;21.40;99.90;;;;;;10397989;28;20217;-72
2022/10/31 11:34:07;;;;;;;9.93;4.60;;;21.30;99.90;;;;;;10403849;28;20224;-71
2022/10/31 11:39:22;;;;;;;12.63;5.50;;;21.20;99.90;;;;;;10394220;28;20232;-71
2022/10/31 11:44:27;;;;;;;11.50;5.00;;;20.90;99.90;;;;;;10391468;28;20250;-71
2022/10/31 11:49:40;;;;;;;11.63;4.97;;;20.30;99.90;;;;;;10433195;28;20307;-71
2022/10/31 11:54:55;;;;;;;11.23;4.87;;;19.90;99.90;;;;;;10434074;28;20227;-71
2022/10/31 11:59:58;;;;;;;12.17;4.10;;;19.80;99.90;;;;;;10396074;28;20231;-72
2022/10/31 12:05:20;;;;;;;11.83;4.23;;;20.00;99.90;;;;;;10393173;28;20228;-71
2022/10/31 12:10:26;;;;;;;9.20;4.20;;;20.30;99.90;;;;;;10429981;28;20890;-70
2022/10/31 12:15:31;;;;;;;12.87;4.60;;;20.50;99.90;;;;;;10395568;28;20226;-73
2022/10/31 12:20:44;;;;;;;8.10;3.90;;;20.60;99.90;;;;;;10391364;28;20219;-71
2022/10/31 12:25:56;;;;;;;7.93;4.10;;;20.80;99.90;;;;;;10394359;28;20231;-72
2022/10/31 12:31:18;;;;;;;13.27;4.23;;;20.80;99.90;;;;;;10387003;28;20232;-70
2022/10/31 12:36:36;;;;;;;8.73;4.00;;;20.80;99.90;;;;;;10389021;28;20726;-72
2022/10/31 12:42:10;;;;;;;10.87;4.47;;;20.80;99.90;;;;;;10411141;28;20230;-72
2022/10/31 12:47:54;;;;;;;8.83;4.50;;;20.60;99.90;;;;;;10415465;28;20219;-71
2022/10/31 12:53:13;;;;;;;10.93;4.57;;;20.40;99.90;;;;;;10385029;28;20726;-70
2022/10/31 12:58:29;;;;;;;10.33;4.90;;;20.20;99.90;;;;;;10388326;28;20235;-71
2022/10/31 13:03:58;;;;;;;9.80;4.37;;;19.90;99.90;;;;;;10389339;28;20235;-73
2022/10/31 13:09:04;;;;;;;16.00;4.53;;;19.50;99.90;;;;;;10386837;28;20246;-71
2022/10/31 13:14:33;;;;;;;7.77;4.10;;;19.40;99.90;;;;;;10388873;28;20304;-71
2022/10/31 13:19:41;;;;;;;7.40;3.93;;;19.50;99.90;;;;;;10393787;28;20311;-72
2022/10/31 13:25:14;;;;;;;10.10;4.80;;;19.70;99.90;;;;;;10384645;28;20236;-70
2022/10/31 13:30:22;;;;;;;13.80;4.40;;;19.70;99.90;;;;;;10425228;28;20271;-70
2022/10/31 13:35:32;;;;;;;8.50;4.60;;;19.60;99.90;;;;;;10387521;28;20185;-70
2022/10/31 13:40:47;;;;;;;6.57;3.83;;;19.50;99.90;;;;;;10387120;28;20294;-69
2022/10/31 13:45:52;;;;;;;9.47;4.00;;;19.50;99.90;;;;;;10383912;28;20706;-71
2022/10/31 13:51:06;;;;;;;11.30;5.10;;;19.60;99.90;;;;;;10398519;28;20223;-71
2022/10/31 13:56:09;;;;;;;14.23;5.10;;;19.40;99.90;;;;;;10384431;28;20270;-71
2022/10/31 14:01:10;;;;;;;7.97;4.50;;;19.30;99.90;;;;;;10387947;28;20587;-72
2022/10/31 14:06:11;;;;;;;10.83;4.80;;;19.00;99.90;;;;;;10390708;28;20305;-71
2022/10/31 14:11:24;;;;;;;11.17;4.47;;;18.80;99.90;;;;;;10389067;28;20306;-72
2022/10/31 14:16:28;;;;;;;14.63;4.60;;;18.70;99.90;;;;;;10384052;28;20216;-72
2022/10/31 14:21:36;;;;;;;11.83;5.07;;;18.60;99.90;;;;;;10391921;28;20239;-72
2022/10/31 14:26:36;;;;;;;9.20;4.20;;;18.60;99.90;;;;;;10386892;28;20258;-72
2022/10/31 14:31:41;;;;;;;13.87;5.27;;;18.80;99.90;;;;;;10389615;28;20229;-71
2022/10/31 14:37:14;;;;;;;10.47;4.20;;;19.20;99.90;;;;;;10388611;28;20235;-72
2022/10/31 14:42:45;;;;;;;12.40;4.00;;;19.50;99.90;;;;;;10383737;28;20250;-71
2022/10/31 14:48:09;;;;;;;8.73;4.00;;;19.60;99.90;;;;;;10382354;28;20612;-72
2022/10/31 14:53:25;;;;;;;11.63;4.33;;;19.60;99.90;;;;;;10381918;28;20223;-71
2022/10/31 14:58:40;;;;;;;12.60;4.53;;;19.40;99.90;;;;;;10383548;28;20285;-71
2022/10/31 15:03:45;;;;;;;9.53;4.10;;;19.10;99.90;;;;;;10386055;28;20701;-72
2022/10/31 15:08:50;;;;;;;9.33;4.60;;;18.80;99.90;;;;;;10388749;28;20238;-72
2022/10/31 15:13:56;;;;;;;9.93;4.53;;;18.40;99.90;;;;;;10396827;28;20229;-71
2022/10/31 15:19:00;;;;;;;9.03;4.37;;;18.00;99.90;;;;;;10395673;28;20225;-72
2022/10/31 15:24:02;;;;;;;10.13;4.70;;;17.70;99.90;;;;;;10394526;28;20219;-71
2022/10/31 15:29:05;;;;;;;10.80;6.20;;;17.50;99.90;;;;;;10395237;28;20223;-70
2022/10/31 15:34:15;;;;;;;7.83;5.30;;;17.30;99.90;;;;;;10388190;28;20234;-71
2022/10/31 15:39:17;;;;;;;10.10;5.10;;;17.10;99.90;;;;;;10393075;28;20222;-71
2022/10/31 15:44:40;;;;;;;9.67;5.43;;;16.90;99.90;;;;;;10389944;28;20225;-72
2022/10/31 15:49:50;;;;;;;15.17;6.87;;;16.80;99.90;;;;;;10386104;28;20339;-71
2022/10/31 15:54:55;;;;;;;12.03;6.00;;;16.70;99.90;;;;;;10394420;28;20240;-71
2022/10/31 15:59:56;;;;;;;12.13;5.93;;;16.70;99.90;;;;;;10394466;28;20280;-72
2022/10/31 16:05:00;;;;;;;9.70;5.97;;;16.60;99.90;;;;;;10395010;28;20228;-72
2022/10/31 16:10:03;;;;;;;13.13;6.80;;;16.60;99.90;;;;;;10393188;28;20226;-73
2022/10/31 16:15:05;;;;;;;11.77;6.80;;;16.60;99.90;;;;;;10394878;28;20667;-70
2022/10/31 16:20:07;;;;;;;10.63;6.03;;;16.60;99.90;;;;;;10431209;28;20232;-72
2022/10/31 16:25:28;;;;;;;16.03;6.33;;;16.70;99.90;;;;;;10394550;28;20264;-70
2022/10/31 16:30:37;;;;;;;11.40;5.50;;;16.70;99.90;;;;;;10426571;28;20671;-71
2022/10/31 16:35:39;;;;;;;14.63;5.33;;;16.70;99.90;;;;;;10385957;28;20225;-71
2022/10/31 16:40:39;;;;;;;10.77;5.07;;;16.70;99.90;;;;;;10391265;28;20735;-72
2022/10/31 16:45:45;;;;;;;12.23;5.47;;;16.60;99.90;;;;;;10385818;28;20311;-71
2022/10/31 16:50:47;;;;;;;11.57;5.10;;;16.50;99.90;;;;;;10390569;28;20311;-71
2022/10/31 16:55:55;;;;;;;14.27;6.03;;;16.50;99.90;;;;;;10385118;28;20232;-70
2022/10/31 17:00:57;;;;;;;18.23;7.47;;;16.40;99.90;;;;;;10383198;28;20229;-71
2022/10/31 17:05:57;;;;;;;15.83;7.00;;;16.40;99.90;;;;;;10392187;28;20236;-71
2022/10/31 17:10:58;;;;;;;11.73;6.30;;;16.40;99.90;;;;;;10382325;28;20252;-70
2022/10/31 17:16:02;;;;;;;10.80;6.33;;;16.40;99.90;;;;;;10395951;28;20738;-70
2022/10/31 17:21:05;;;;;;;10.30;5.60;;;16.30;99.90;;;;;;10383666;28;20256;-71
2022/10/31 17:26:07;;;;;;;10.67;5.73;;;16.20;99.90;;;;;;10382743;28;20817;-70
2022/10/31 17:31:20;;;;;;;13.83;6.00;;;16.20;99.90;;;;;;10382595;28;20256;-70
2022/10/31 17:36:21;;;;;;;13.87;6.33;;;16.10;99.90;;;;;;10386287;28;20660;-71
2022/10/31 17:41:23;;;;;;;7.27;5.40;;;16.10;99.90;;;;;;10386090;28;20212;-71
2022/10/31 17:46:27;;;;;;;12.17;6.20;;;16.10;99.90;;;;;;10385603;28;20214;-72
2022/10/31 17:51:28;;;;;;;10.70;6.63;;;16.00;99.90;;;;;;10399480;28;20232;-70
2022/10/31 17:56:28;;;;;;;8.73;5.40;;;15.90;99.90;;;;;;10408157;28;20217;-71
2022/10/31 18:01:29;;;;;;;9.70;5.80;;;15.80;99.90;;;;;;10390137;28;20270;-71
2022/10/31 18:06:29;;;;;;;10.03;7.63;;;15.50;99.90;;;;;;10382948;28;20213;-72
2022/10/31 18:11:30;;;;;;;9.43;6.77;;;15.30;99.90;;;;;;10389786;28;20229;-71
2022/10/31 18:16:31;;;;;;;12.07;7.27;;;15.20;99.90;;;;;;10393036;28;20313;-72
2022/10/31 18:21:32;;;;;;;11.17;5.80;;;15.00;99.90;;;;;;10408799;28;20227;-70
2022/10/31 18:26:33;;;;;;;10.50;6.03;;;14.90;99.90;;;;;;10430627;28;20218;-72
2022/10/31 18:31:33;;;;;;;10.57;5.60;;;14.70;99.90;;;;;;10414183;28;20224;-71
2022/10/31 18:36:34;;;;;;;7.50;5.57;;;14.70;99.90;;;;;;10431014;28;20223;-71
2022/10/31 18:41:35;;;;;;;7.83;5.27;;;14.50;99.90;;;;;;10398904;28;20229;-71
2022/10/31 18:46:36;;;;;;;13.10;6.83;;;14.40;99.90;;;;;;10394151;28;20209;-70
2022/10/31 18:51:36;;;;;;;15.80;6.83;;;14.30;99.90;;;;;;10404535;28;20710;-72
2022/10/31 18:56:37;;;;;;;11.67;6.13;;;14.20;99.90;;;;;;10402936;28;20719;-70
2022/10/31 19:01:38;;;;;;;9.27;6.67;;;14.10;99.90;;;;;;10415044;28;20590;-71
2022/10/31 19:06:38;;;;;;;14.23;8.00;;;14.00;99.90;;;;;;10456633;28;20220;-72
2022/10/31 19:11:39;;;;;;;16.03;8.23;;;13.90;99.90;;;;;;10443312;28;20219;-70
2022/10/31 19:16:40;;;;;;;15.33;9.07;;;13.90;99.90;;;;;;10443510;28;20876;-71
2022/10/31 19:21:41;;;;;;;17.87;9.47;;;13.80;99.90;;;;;;10442643;28;20227;-72
2022/10/31 19:26:44;;;;;;;14.17;9.40;;;13.80;99.90;;;;;;10442997;28;20212;-71
2022/10/31 19:31:45;;;;;;;15.10;9.93;;;13.80;99.90;;;;;;10444017;28;20234;-71
2022/10/31 19:36:45;;;;;;;18.80;10.23;;;13.80;99.90;;;;;;10430767;28;20221;-70
2022/10/31 19:41:49;;;;;;;11.83;9.23;;;13.80;99.90;;;;;;10415175;28;20336;-71
2022/10/31 19:46:50;;;;;;;13.00;9.67;;;13.80;99.90;;;;;;10435854;28;20754;-70
2022/10/31 19:51:51;;;;;;;12.87;10.70;;;13.80;99.90;;;;;;10445422;28;20302;-70
2022/10/31 19:56:51;;;;;;;20.10;11.37;;;13.70;99.90;;;;;;10449853;28;20785;-71
2022/10/31 20:01:52;;;;;;;14.57;10.97;;;13.80;99.90;;;;;;10450331;28;20745;-71
2022/10/31 20:06:52;;;;;;;18.60;11.83;;;13.80;99.90;;;;;;10450756;28;20207;-70
2022/10/31 20:11:53;;;;;;;15.07;11.23;;;13.70;99.90;;;;;;10446287;28;20235;-70
2022/10/31 20:16:53;;;;;;;15.60;10.27;;;13.70;99.90;;;;;;10447562;28;20222;-71
2022/10/31 20:21:54;;;;;;;18.90;12.73;;;13.70;99.90;;;;;;10411818;28;20592;-71
2022/10/31 20:26:54;;;;;;;24.20;13.33;;;13.60;99.90;;;;;;10401596;28;20218;-69
2022/10/31 20:31:56;;;;;;;17.93;11.53;;;13.60;99.90;;;;;;10406508;28;20221;-70
2022/10/31 20:36:56;;;;;;;16.87;10.90;;;13.60;99.90;;;;;;10441876;28;20857;-72
2022/10/31 20:41:57;;;;;;;19.73;12.47;;;13.50;99.90;;;;;;10439894;28;20283;-72
2022/10/31 20:46:58;;;;;;;19.73;11.83;;;13.50;99.90;;;;;;10418044;28;20221;-71
2022/10/31 20:51:58;;;;;;;17.70;12.60;;;13.50;99.90;;;;;;10392444;28;20220;-70
2022/10/31 20:56:59;;;;;;;19.53;13.50;;;13.50;99.90;;;;;;10384930;28;20224;-71
2022/10/31 21:01:59;;;;;;;17.77;12.53;;;13.50;99.90;;;;;;10390537;28;20221;-72
2022/10/31 21:07:00;;;;;;;18.93;11.87;;;13.60;99.90;;;;;;10382427;28;20334;-72
2022/10/31 21:12:00;;;;;;;17.03;11.67;;;13.50;99.90;;;;;;10389483;28;20225;-73
2022/10/31 21:17:01;;;;;;;17.37;11.53;;;13.50;99.90;;;;;;10391068;28;20235;-71
2022/10/31 21:22:03;;;;;;;15.83;10.97;;;13.50;99.90;;;;;;10388037;28;20614;-71
2022/10/31 21:27:03;;;;;;;17.87;11.77;;;13.40;99.90;;;;;;10390033;28;20319;-74
2022/10/31 21:32:04;;;;;;;20.90;13.03;;;13.40;99.90;;;;;;10384246;28;20323;-73
2022/10/31 21:37:04;;;;;;;21.67;12.13;;;13.40;99.90;;;;;;10389525;28;20220;-71
2022/10/31 21:42:05;;;;;;;15.87;12.13;;;13.50;99.90;;;;;;10405628;28;20231;-70
2022/10/31 21:47:05;;;;;;;17.00;11.80;;;13.50;99.90;;;;;;10408261;28;20208;-71
2022/10/31 21:52:06;;;;;;;21.83;14.70;;;13.50;99.90;;;;;;10408358;28;20212;-71
2022/10/31 21:57:07;;;;;;;21.53;14.07;;;13.50;99.90;;;;;;10406590;28;20282;-72
2022/10/31 22:02:08;;;;;;;21.30;13.67;;;13.50;99.90;;;;;;10422424;28;20215;-71
2022/10/31 22:07:08;;;;;;;21.77;14.03;;;13.50;99.90;;;;;;10445324;28;20208;-72
2022/10/31 22:12:09;;;;;;;28.70;14.33;;;13.60;99.90;;;;;;10433521;28;20216;-73
2022/10/31 22:17:10;;;;;;;27.23;14.30;;;13.60;99.90;;;;;;10407886;28;20844;-72
2022/10/31 22:22:11;;;;;;;22.43;13.13;;;13.70;99.90;;;;;;10404988;28;20696;-71
2022/10/31 22:27:12;;;;;;;16.33;11.50;;;13.70;99.90;;;;;;10389423;28;20236;-72
2022/10/31 22:32:12;;;;;;;15.93;10.80;;;13.70;99.90;;;;;;10386429;28;20218;-70
2022/10/31 22:37:16;;;;;;;15.67;11.37;;;13.60;99.90;;;;;;10388949;28;20648;-70
2022/10/31 22:42:16;;;;;;;16.60;10.50;;;13.50;99.90;;;;;;10385722;28;20225;-69
2022/10/31 22:47:17;;;;;;;14.30;9.97;;;13.50;99.90;;;;;;10380477;28;20595;-68
2022/10/31 22:52:17;;;;;;;13.87;10.03;;;13.40;99.90;;;;;;10407907;28;20221;-70
2022/10/31 22:57:18;;;;;;;12.13;10.53;;;13.40;99.90;;;;;;10424818;28;20216;-68
2022/10/31 23:02:18;;;;;;;17.90;10.83;;;13.40;99.90;;;;;;10408265;28;20995;-69
2022/10/31 23:07:19;;;;;;;16.30;10.53;;;13.30;99.90;;;;;;10383659;28;20252;-69
2022/10/31 23:17:39;;;;;;;15.60;10.50;;;13.30;99.90;;;;;;10387300;28;20225;-73
2022/10/31 23:22:40;;;;;;;11.90;9.20;;;13.30;99.90;;;;;;10388525;28;20229;-74
2022/10/31 23:27:40;;;;;;;15.73;9.90;;;13.30;99.90;;;;;;10413713;28;20223;-75
2022/10/31 23:32:44;;;;;;;14.10;9.77;;;13.30;99.90;;;;;;10392424;28;20232;-74
2022/10/31 23:37:44;;;;;;;13.83;9.87;;;13.20;99.90;;;;;;10387662;28;20231;-73
2022/10/31 23:42:45;;;;;;;13.80;9.80;;;13.30;99.90;;;;;;10394201;28;20230;-74
2022/10/31 23:47:45;;;;;;;11.53;9.77;;;13.30;99.90;;;;;;10386209;28;20235;-75
2022/10/31 23:52:46;;;;;;;13.00;9.57;;;13.40;99.90;;;;;;10422965;28;20221;-70
2022/10/31 23:57:46;;;;;;;16.20;10.83;;;13.40;99.90;;;;;;10413186;28;20572;-70
